sensor_id;sensor_type;location;lat;lon;timestamp;temperature;humidity
76567;DHT22;65428;53.194;6.132;2024-03-23T00:54:52;4.60;99.90
76567;DHT22;65428;53.194;6.132;2024-03-23T00:57:19;4.30;99.90
76567;DHT22;65428;53.194;6.132;2024-03-23T00:59:50;4.20;99.90
76567;DHT22;65428;53.194;6.132;2024-03-23T01:02:20;4.30;99.90
76567;DHT22;65428;53.194;6.132;2024-03-23T01:04:46;4.30;99.90
76567;DHT22;65428;53.194;6.132;2024-03-23T01:07:11;4.20;99.90
76567;DHT22;65428;53.194;6.132;2024-03-23T01:09:37;4.20;99.90
76567;DHT22;65428;53.194;6.132;2024-03-23T01:12:04;4.30;99.90
76567;DHT22;65428;53.194;6.132;2024-03-23T01:14:30;4.20;99.90
76567;DHT22;65428;53.194;6.132;2024-03-23T01:16:56;4.10;99.90
76567;DHT22;65428;53.194;6.132;2024-03-23T01:19:22;4.10;99.90
76567;DHT22;65428;53.194;6.132;2024-03-23T01:21:47;4.30;99.90
76567;DHT22;65428;53.194;6.132;2024-03-23T01:24:15;4.30;99.90
76567;DHT22;65428;53.194;6.132;2024-03-23T01:26:40;4.40;99.90
76567;DHT22;65428;53.194;6.132;2024-03-23T01:29:06;4.10;99.90
76567;DHT22;65428;53.194;6.132;2024-03-23T01:31:32;3.90;99.90
76567;DHT22;65428;53.194;6.132;2024-03-23T01:33:58;3.90;99.90
76567;DHT22;65428;53.194;6.132;2024-03-23T01:36:24;3.90;99.90
76567;DHT22;65428;53.194;6.132;2024-03-23T01:38:50;3.80;99.90
76567;DHT22;65428;53.194;6.132;2024-03-23T01:41:17;3.80;99.90
76567;DHT22;65428;53.194;6.132;2024-03-23T01:43:43;3.90;99.90
76567;DHT22;65428;53.194;6.132;2024-03-23T01:46:09;3.80;99.90
76567;DHT22;65428;53.194;6.132;2024-03-23T01:48:34;3.80;99.90
76567;DHT22;65428;53.194;6.132;2024-03-23T01:51:00;3.70;99.90
76567;DHT22;65428;53.194;6.132;2024-03-23T01:53:26;3.70;99.90
76567;DHT22;65428;53.194;6.132;2024-03-23T01:55:52;4.00;99.90
76567;DHT22;65428;53.194;6.132;2024-03-23T01:58:18;3.70;99.90
76567;DHT22;65428;53.194;6.132;2024-03-23T02:00:43;3.60;99.90
76567;DHT22;65428;53.194;6.132;2024-03-23T02:03:27;3.60;99.90
76567;DHT22;65428;53.194;6.132;2024-03-23T02:05:54;3.60;99.90
76567;DHT22;65428;53.194;6.132;2024-03-23T02:08:21;3.50;99.90
76567;DHT22;65428;53.194;6.132;2024-03-23T02:10:48;3.50;99.90
76567;DHT22;65428;53.194;6.132;2024-03-23T02:13:15;3.50;99.90
76567;DHT22;65428;53.194;6.132;2024-03-23T02:15:41;3.50;99.90
76567;DHT22;65428;53.194;6.132;2024-03-23T02:18:07;3.60;99.90
76567;DHT22;65428;53.194;6.132;2024-03-23T02:20:36;3.40;99.90
76567;DHT22;65428;53.194;6.132;2024-03-23T02:23:03;3.60;99.90
76567;DHT22;65428;53.194;6.132;2024-03-23T02:25:29;3.40;99.90
76567;DHT22;65428;53.194;6.132;2024-03-23T02:27:54;3.50;99.90
76567;DHT22;65428;53.194;6.132;2024-03-23T02:30:20;3.40;99.90
76567;DHT22;65428;53.194;6.132;2024-03-23T02:32:46;3.50;99.90
76567;DHT22;65428;53.194;6.132;2024-03-23T02:35:12;3.30;99.90
76567;DHT22;65428;53.194;6.132;2024-03-23T02:37:38;3.30;99.90
76567;DHT22;65428;53.194;6.132;2024-03-23T02:40:04;3.30;99.90
76567;DHT22;65428;53.194;6.132;2024-03-23T02:42:30;3.30;99.90
76567;DHT22;65428;53.194;6.132;2024-03-23T02:44:58;3.30;99.90
76567;DHT22;65428;53.194;6.132;2024-03-23T02:47:24;3.20;99.90
76567;DHT22;65428;53.194;6.132;2024-03-23T02:49:50;3.40;99.90
76567;DHT22;65428;53.194;6.132;2024-03-23T02:52:15;3.20;99.90
76567;DHT22;65428;53.194;6.132;2024-03-23T02:54:41;3.50;99.90
76567;DHT22;65428;53.194;6.132;2024-03-23T02:57:10;3.40;99.90
76567;DHT22;65428;53.194;6.132;2024-03-23T02:59:36;3.20;99.90
76567;DHT22;65428;53.194;6.132;2024-03-23T03:02:02;3.30;99.90
76567;DHT22;65428;53.194;6.132;2024-03-23T03:04:30;3.00;99.90
76567;DHT22;65428;53.194;6.132;2024-03-23T03:06:56;3.20;99.90
76567;DHT22;65428;53.194;6.132;2024-03-23T03:09:21;3.20;99.90
76567;DHT22;65428;53.194;6.132;2024-03-23T03:11:47;3.10;99.90
76567;DHT22;65428;53.194;6.132;2024-03-23T03:14:13;3.10;99.90
76567;DHT22;65428;53.194;6.132;2024-03-23T03:16:39;3.10;99.90
76567;DHT22;65428;53.194;6.132;2024-03-23T03:19:04;3.40;99.90
76567;DHT22;65428;53.194;6.132;2024-03-23T03:21:31;3.10;99.90
76567;DHT22;65428;53.194;6.132;2024-03-23T03:23:58;3.00;99.90
76567;DHT22;65428;53.194;6.132;2024-03-23T03:26:24;3.20;99.90
76567;DHT22;65428;53.194;6.132;2024-03-23T03:28:50;3.00;99.90
76567;DHT22;65428;53.194;6.132;2024-03-23T03:31:17;3.00;99.90
76567;DHT22;65428;53.194;6.132;2024-03-23T03:33:43;2.70;99.90
76567;DHT22;65428;53.194;6.132;2024-03-23T03:36:09;3.00;99.90
76567;DHT22;65428;53.194;6.132;2024-03-23T03:38:35;3.00;99.90
76567;DHT22;65428;53.194;6.132;2024-03-23T03:41:01;2.90;99.90
76567;DHT22;65428;53.194;6.132;2024-03-23T03:43:27;2.90;99.90
76567;DHT22;65428;53.194;6.132;2024-03-23T03:45:59;3.00;99.90
76567;DHT22;65428;53.194;6.132;2024-03-23T03:48:25;3.00;99.90
76567;DHT22;65428;53.194;6.132;2024-03-23T03:50:52;3.00;99.90
76567;DHT22;65428;53.194;6.132;2024-03-23T03:53:19;2.90;99.90
76567;DHT22;65428;53.194;6.132;2024-03-23T03:55:44;3.00;99.90
76567;DHT22;65428;53.194;6.132;2024-03-23T03:58:10;3.00;99.90
76567;DHT22;65428;53.194;6.132;2024-03-23T04:00:36;3.00;99.90
76567;DHT22;65428;53.194;6.132;2024-03-23T04:03:02;3.00;99.90
76567;DHT22;65428;53.194;6.132;2024-03-23T04:05:28;3.00;99.90
76567;DHT22;65428;53.194;6.132;2024-03-23T04:07:53;3.00;99.90
76567;DHT22;65428;53.194;6.132;2024-03-23T04:10:20;3.00;99.90
76567;DHT22;65428;53.194;6.132;2024-03-23T04:12:46;3.00;99.90
76567;DHT22;65428;53.194;6.132;2024-03-23T04:15:12;2.90;99.90
76567;DHT22;65428;53.194;6.132;2024-03-23T04:17:39;2.90;99.90
76567;DHT22;65428;53.194;6.132;2024-03-23T04:20:05;2.90;99.90
76567;DHT22;65428;53.194;6.132;2024-03-23T04:22:34;2.90;99.90
76567;DHT22;65428;53.194;6.132;2024-03-23T04:25:00;2.90;99.90
76567;DHT22;65428;53.194;6.132;2024-03-23T04:27:35;3.00;99.90
76567;DHT22;65428;53.194;6.132;2024-03-23T04:30:01;3.00;99.90
76567;DHT22;65428;53.194;6.132;2024-03-23T04:32:29;3.00;99.90
76567;DHT22;65428;53.194;6.132;2024-03-23T04:34:54;3.10;99.90
76567;DHT22;65428;53.194;6.132;2024-03-23T04:37:21;3.00;99.90
76567;DHT22;65428;53.194;6.132;2024-03-23T04:39:47;3.00;99.90
76567;DHT22;65428;53.194;6.132;2024-03-23T04:42:15;3.00;99.90
76567;DHT22;65428;53.194;6.132;2024-03-23T04:44:41;2.90;99.90
76567;DHT22;65428;53.194;6.132;2024-03-23T04:47:07;2.90;99.90
76567;DHT22;65428;53.194;6.132;2024-03-23T04:49:32;2.90;99.90
76567;DHT22;65428;53.194;6.132;2024-03-23T04:51:58;3.10;99.90
76567;DHT22;65428;53.194;6.132;2024-03-23T04:54:24;3.00;99.90
76567;DHT22;65428;53.194;6.132;2024-03-23T04:56:50;3.10;99.90
76567;DHT22;65428;53.194;6.132;2024-03-23T04:59:15;3.10;99.90
76567;DHT22;65428;53.194;6.132;2024-03-23T05:01:41;3.10;99.90
76567;DHT22;65428;53.194;6.132;2024-03-23T05:04:08;3.00;99.90
76567;DHT22;65428;53.194;6.132;2024-03-23T05:06:34;3.00;99.90
76567;DHT22;65428;53.194;6.132;2024-03-23T05:09:00;3.00;99.90
76567;DHT22;65428;53.194;6.132;2024-03-23T05:11:33;3.20;99.90
76567;DHT22;65428;53.194;6.132;2024-03-23T05:13:59;3.30;99.90
76567;DHT22;65428;53.194;6.132;2024-03-23T05:16:26;3.00;99.90
76567;DHT22;65428;53.194;6.132;2024-03-23T05:18:52;3.00;99.90
76567;DHT22;65428;53.194;6.132;2024-03-23T05:21:17;3.00;99.90
76567;DHT22;65428;53.194;6.132;2024-03-23T05:23:43;3.10;99.90
76567;DHT22;65428;53.194;6.132;2024-03-23T05:26:09;3.00;99.90
76567;DHT22;65428;53.194;6.132;2024-03-23T05:28:35;3.00;99.90
76567;DHT22;65428;53.194;6.132;2024-03-23T05:31:01;3.20;99.90
76567;DHT22;65428;53.194;6.132;2024-03-23T05:33:27;3.40;99.90
76567;DHT22;65428;53.194;6.132;2024-03-23T05:35:57;3.20;99.90
76567;DHT22;65428;53.194;6.132;2024-03-23T05:38:23;3.40;99.90
76567;DHT22;65428;53.194;6.132;2024-03-23T05:40:55;3.40;99.90
76567;DHT22;65428;53.194;6.132;2024-03-23T05:43:22;3.50;99.90
76567;DHT22;65428;53.194;6.132;2024-03-23T05:45:57;4.00;99.90
76567;DHT22;65428;53.194;6.132;2024-03-23T05:48:25;3.80;99.90
76567;DHT22;65428;53.194;6.132;2024-03-23T05:50:52;3.70;99.90
76567;DHT22;65428;53.194;6.132;2024-03-23T05:53:18;3.90;99.90
76567;DHT22;65428;53.194;6.132;2024-03-23T05:55:47;3.90;99.90
76567;DHT22;65428;53.194;6.132;2024-03-23T05:58:15;4.20;99.90
76567;DHT22;65428;53.194;6.132;2024-03-23T06:00:41;3.90;99.90
76567;DHT22;65428;53.194;6.132;2024-03-23T06:03:08;3.90;99.90
76567;DHT22;65428;53.194;6.132;2024-03-23T06:05:34;4.10;99.90
76567;DHT22;65428;53.194;6.132;2024-03-23T06:07:59;3.80;99.90
76567;DHT22;65428;53.194;6.132;2024-03-23T06:10:25;3.80;99.90
76567;DHT22;65428;53.194;6.132;2024-03-23T06:12:51;3.60;99.90
76567;DHT22;65428;53.194;6.132;2024-03-23T06:15:21;3.80;99.90
76567;DHT22;65428;53.194;6.132;2024-03-23T06:17:48;3.70;99.90
76567;DHT22;65428;53.194;6.132;2024-03-23T06:20:14;4.20;99.90
76567;DHT22;65428;53.194;6.132;2024-03-23T06:22:40;3.70;99.90
76567;DHT22;65428;53.194;6.132;2024-03-23T06:25:06;4.20;99.90
76567;DHT22;65428;53.194;6.132;2024-03-23T06:27:32;4.10;99.90
76567;DHT22;65428;53.194;6.132;2024-03-23T06:29:59;4.40;99.90
76567;DHT22;65428;53.194;6.132;2024-03-23T06:32:25;4.50;99.90
76567;DHT22;65428;53.194;6.132;2024-03-23T06:34:50;4.80;99.90
76567;DHT22;65428;53.194;6.132;2024-03-23T06:37:16;4.60;99.90
76567;DHT22;65428;53.194;6.132;2024-03-23T06:39:42;4.90;99.90
76567;DHT22;65428;53.194;6.132;2024-03-23T06:42:08;4.80;99.90
76567;DHT22;65428;53.194;6.132;2024-03-23T06:44:34;5.00;99.90
76567;DHT22;65428;53.194;6.132;2024-03-23T06:47:00;5.10;99.90
76567;DHT22;65428;53.194;6.132;2024-03-23T06:49:25;5.20;99.90
76567;DHT22;65428;53.194;6.132;2024-03-23T06:51:51;5.40;99.90
76567;DHT22;65428;53.194;6.132;2024-03-23T06:54:19;4.90;99.90
76567;DHT22;65428;53.194;6.132;2024-03-23T06:56:45;5.10;99.90
76567;DHT22;65428;53.194;6.132;2024-03-23T06:59:10;4.60;99.90
76567;DHT22;65428;53.194;6.132;2024-03-23T07:01:36;4.70;99.90
76567;DHT22;65428;53.194;6.132;2024-03-23T07:04:02;4.80;99.90
76567;DHT22;65428;53.194;6.132;2024-03-23T07:06:32;4.60;99.90
76567;DHT22;65428;53.194;6.132;2024-03-23T07:08:58;4.70;99.90
76567;DHT22;65428;53.194;6.132;2024-03-23T07:11:24;4.90;99.90
76567;DHT22;65428;53.194;6.132;2024-03-23T07:13:51;4.70;99.90
76567;DHT22;65428;53.194;6.132;2024-03-23T07:16:17;5.50;99.90
76567;DHT22;65428;53.194;6.132;2024-03-23T07:18:43;5.10;99.90
76567;DHT22;65428;53.194;6.132;2024-03-23T07:21:09;5.20;99.90
76567;DHT22;65428;53.194;6.132;2024-03-23T07:23:35;5.30;99.90
76567;DHT22;65428;53.194;6.132;2024-03-23T07:26:03;5.70;99.90
76567;DHT22;65428;53.194;6.132;2024-03-23T07:28:30;5.60;99.90
76567;DHT22;65428;53.194;6.132;2024-03-23T07:31:09;5.80;99.90
76567;DHT22;65428;53.194;6.132;2024-03-23T07:33:36;6.10;99.90
76567;DHT22;65428;53.194;6.132;2024-03-23T07:36:04;6.30;99.90
76567;DHT22;65428;53.194;6.132;2024-03-23T07:38:30;6.60;99.90
76567;DHT22;65428;53.194;6.132;2024-03-23T07:41:12;6.80;99.90
76567;DHT22;65428;53.194;6.132;2024-03-23T07:43:39;6.80;99.90
76567;DHT22;65428;53.194;6.132;2024-03-23T07:46:08;6.60;99.90
76567;DHT22;65428;53.194;6.132;2024-03-23T07:48:34;6.40;99.90
76567;DHT22;65428;53.194;6.132;2024-03-23T07:51:17;6.10;99.90
76567;DHT22;65428;53.194;6.132;2024-03-23T07:53:44;6.10;99.90
76567;DHT22;65428;53.194;6.132;2024-03-23T07:56:17;6.20;99.90
76567;DHT22;65428;53.194;6.132;2024-03-23T07:58:44;6.30;99.90
76567;DHT22;65428;53.194;6.132;2024-03-23T08:01:12;6.40;99.90
76567;DHT22;65428;53.194;6.132;2024-03-23T08:03:39;6.50;99.90
76567;DHT22;65428;53.194;6.132;2024-03-23T08:06:19;6.70;99.90
76567;DHT22;65428;53.194;6.132;2024-03-23T08:08:57;6.80;99.90
76567;DHT22;65428;53.194;6.132;2024-03-23T08:11:30;6.90;99.90
76567;DHT22;65428;53.194;6.132;2024-03-23T08:13:56;7.10;99.90
76567;DHT22;65428;53.194;6.132;2024-03-23T08:16:23;7.20;99.90
76567;DHT22;65428;53.194;6.132;2024-03-23T08:18:51;7.30;99.90
76567;DHT22;65428;53.194;6.132;2024-03-23T08:21:17;7.50;99.90
76567;DHT22;65428;53.194;6.132;2024-03-23T08:23:44;7.70;99.90
76567;DHT22;65428;53.194;6.132;2024-03-23T08:26:14;7.90;99.90
76567;DHT22;65428;53.194;6.132;2024-03-23T08:28:40;8.10;99.90
76567;DHT22;65428;53.194;6.132;2024-03-23T08:31:10;8.30;99.90
76567;DHT22;65428;53.194;6.132;2024-03-23T08:33:36;8.40;99.90
76567;DHT22;65428;53.194;6.132;2024-03-23T08:36:07;8.30;99.90
76567;DHT22;65428;53.194;6.132;2024-03-23T08:38:34;8.00;99.90
76567;DHT22;65428;53.194;6.132;2024-03-23T08:41:04;8.00;99.90
76567;DHT22;65428;53.194;6.132;2024-03-23T08:43:38;8.10;99.90
76567;DHT22;65428;53.194;6.132;2024-03-23T08:48:38;8.40;99.90
76567;DHT22;65428;53.194;6.132;2024-03-23T08:51:05;8.50;99.90
76567;DHT22;65428;53.194;6.132;2024-03-23T08:53:31;8.70;99.90
76567;DHT22;65428;53.194;6.132;2024-03-23T08:55:58;9.10;99.90
76567;DHT22;65428;53.194;6.132;2024-03-23T08:58:25;9.20;99.90
76567;DHT22;65428;53.194;6.132;2024-03-23T09:00:52;9.50;99.90
76567;DHT22;65428;53.194;6.132;2024-03-23T09:03:18;9.60;99.90
76567;DHT22;65428;53.194;6.132;2024-03-23T09:05:44;9.50;99.90
76567;DHT22;65428;53.194;6.132;2024-03-23T09:08:10;9.30;99.90
76567;DHT22;65428;53.194;6.132;2024-03-23T09:10:40;8.60;99.90
76567;DHT22;65428;53.194;6.132;2024-03-23T09:13:06;7.80;99.90
76567;DHT22;65428;53.194;6.132;2024-03-23T09:15:35;7.40;99.90
76567;DHT22;65428;53.194;6.132;2024-03-23T09:18:02;7.00;99.90
76567;DHT22;65428;53.194;6.132;2024-03-23T09:20:29;6.80;99.90
76567;DHT22;65428;53.194;6.132;2024-03-23T09:22:54;6.70;99.90
76567;DHT22;65428;53.194;6.132;2024-03-23T09:25:20;6.70;99.90
76567;DHT22;65428;53.194;6.132;2024-03-23T09:27:47;6.60;99.90
76567;DHT22;65428;53.194;6.132;2024-03-23T09:30:13;6.40;99.90
76567;DHT22;65428;53.194;6.132;2024-03-23T09:32:41;6.20;99.90
76567;DHT22;65428;53.194;6.132;2024-03-23T09:35:07;6.00;99.90
76567;DHT22;65428;53.194;6.132;2024-03-23T09:37:33;6.10;99.90
76567;DHT22;65428;53.194;6.132;2024-03-23T09:39:59;6.30;99.90
76567;DHT22;65428;53.194;6.132;2024-03-23T09:42:24;6.50;99.90
76567;DHT22;65428;53.194;6.132;2024-03-23T09:44:51;6.70;99.90
76567;DHT22;65428;53.194;6.132;2024-03-23T09:47:17;6.70;99.90
76567;DHT22;65428;53.194;6.132;2024-03-23T09:49:44;7.20;99.90
76567;DHT22;65428;53.194;6.132;2024-03-23T09:52:10;7.40;99.90
76567;DHT22;65428;53.194;6.132;2024-03-23T09:54:36;7.80;99.90
76567;DHT22;65428;53.194;6.132;2024-03-23T09:57:02;8.10;99.90
76567;DHT22;65428;53.194;6.132;2024-03-23T09:59:29;8.20;99.90
76567;DHT22;65428;53.194;6.132;2024-03-23T10:01:55;8.20;99.90
76567;DHT22;65428;53.194;6.132;2024-03-23T10:04:37;8.20;99.90
76567;DHT22;65428;53.194;6.132;2024-03-23T10:07:13;8.00;99.90
76567;DHT22;65428;53.194;6.132;2024-03-23T10:09:47;7.90;99.90
76567;DHT22;65428;53.194;6.132;2024-03-23T10:12:17;7.70;99.90
76567;DHT22;65428;53.194;6.132;2024-03-23T10:14:43;7.50;99.90
76567;DHT22;65428;53.194;6.132;2024-03-23T10:17:19;7.60;99.90
76567;DHT22;65428;53.194;6.132;2024-03-23T10:19:49;8.10;99.90
76567;DHT22;65428;53.194;6.132;2024-03-23T10:22:22;8.70;99.90
76567;DHT22;65428;53.194;6.132;2024-03-23T10:24:49;9.30;99.90
76567;DHT22;65428;53.194;6.132;2024-03-23T10:27:17;9.90;99.90
76567;DHT22;65428;53.194;6.132;2024-03-23T10:29:46;10.50;99.90
76567;DHT22;65428;53.194;6.132;2024-03-23T10:32:13;10.50;99.90
76567;DHT22;65428;53.194;6.132;2024-03-23T10:34:39;9.90;99.90
76567;DHT22;65428;53.194;6.132;2024-03-23T10:37:06;9.20;99.90
76567;DHT22;65428;53.194;6.132;2024-03-23T10:39:39;8.60;99.90
76567;DHT22;65428;53.194;6.132;2024-03-23T10:42:09;8.20;99.90
76567;DHT22;65428;53.194;6.132;2024-03-23T10:44:37;8.20;99.90
76567;DHT22;65428;53.194;6.132;2024-03-23T10:47:05;7.90;99.90
76567;DHT22;65428;53.194;6.132;2024-03-23T10:49:32;7.40;99.90
76567;DHT22;65428;53.194;6.132;2024-03-23T10:52:02;7.30;99.90
76567;DHT22;65428;53.194;6.132;2024-03-23T10:54:30;7.20;99.90
76567;DHT22;65428;53.194;6.132;2024-03-23T10:57:17;7.10;99.90
76567;DHT22;65428;53.194;6.132;2024-03-23T10:59:45;7.30;99.90
76567;DHT22;65428;53.194;6.132;2024-03-23T11:02:21;7.90;99.90
76567;DHT22;65428;53.194;6.132;2024-03-23T11:04:47;8.70;99.90
76567;DHT22;65428;53.194;6.132;2024-03-23T11:09:54;10.00;99.90
76567;DHT22;65428;53.194;6.132;2024-03-23T11:14:54;10.90;99.90
76567;DHT22;65428;53.194;6.132;2024-03-23T11:17:21;11.40;99.90
76567;DHT22;65428;53.194;6.132;2024-03-23T11:19:58;11.60;99.90
76567;DHT22;65428;53.194;6.132;2024-03-23T11:22:44;11.50;99.90
76567;DHT22;65428;53.194;6.132;2024-03-23T11:25:21;11.10;99.90
76567;DHT22;65428;53.194;6.132;2024-03-23T11:27:49;11.10;99.90
76567;DHT22;65428;53.194;6.132;2024-03-23T11:30:23;11.00;99.90
76567;DHT22;65428;53.194;6.132;2024-03-23T11:32:50;10.70;99.90
76567;DHT22;65428;53.194;6.132;2024-03-23T11:35:30;10.40;99.90
76567;DHT22;65428;53.194;6.132;2024-03-23T11:38:15;10.00;99.90
76567;DHT22;65428;53.194;6.132;2024-03-23T11:40:46;9.70;99.90
76567;DHT22;65428;53.194;6.132;2024-03-23T11:43:16;9.90;99.90
76567;DHT22;65428;53.194;6.132;2024-03-23T11:45:49;9.60;99.90
76567;DHT22;65428;53.194;6.132;2024-03-23T11:48:22;9.90;99.90
76567;DHT22;65428;53.194;6.132;2024-03-23T11:50:50;10.20;99.90
76567;DHT22;65428;53.194;6.132;2024-03-23T11:53:18;10.10;99.90
76567;DHT22;65428;53.194;6.132;2024-03-23T11:55:53;9.70;99.90
76567;DHT22;65428;53.194;6.132;2024-03-23T11:58:23;9.20;99.90
76567;DHT22;65428;53.194;6.132;2024-03-23T12:00:55;8.80;99.90
76567;DHT22;65428;53.194;6.132;2024-03-23T12:03:21;8.90;99.90
76567;DHT22;65428;53.194;6.132;2024-03-23T12:05:52;9.40;99.90
76567;DHT22;65428;53.194;6.132;2024-03-23T12:08:23;9.60;99.90
76567;DHT22;65428;53.194;6.132;2024-03-23T12:10:53;10.00;99.90
76567;DHT22;65428;53.194;6.132;2024-03-23T12:13:20;10.00;99.90
76567;DHT22;65428;53.194;6.132;2024-03-23T12:15:49;9.80;99.90
76567;DHT22;65428;53.194;6.132;2024-03-23T12:18:15;9.60;99.90
76567;DHT22;65428;53.194;6.132;2024-03-23T12:20:41;10.00;99.90
76567;DHT22;65428;53.194;6.132;2024-03-23T12:25:34;9.50;99.90
76567;DHT22;65428;53.194;6.132;2024-03-23T12:27:59;9.20;99.90
76567;DHT22;65428;53.194;6.132;2024-03-23T12:30:25;8.60;99.90
76567;DHT22;65428;53.194;6.132;2024-03-23T12:32:51;8.20;99.90
76567;DHT22;65428;53.194;6.132;2024-03-23T12:35:17;8.10;99.90
76567;DHT22;65428;53.194;6.132;2024-03-23T12:37:43;8.40;99.90
76567;DHT22;65428;53.194;6.132;2024-03-23T12:40:09;9.00;99.90
76567;DHT22;65428;53.194;6.132;2024-03-23T12:42:35;9.40;99.90
76567;DHT22;65428;53.194;6.132;2024-03-23T12:45:01;9.40;99.90
76567;DHT22;65428;53.194;6.132;2024-03-23T12:47:27;9.30;99.90
76567;DHT22;65428;53.194;6.132;2024-03-23T12:49:53;9.10;99.90
76567;DHT22;65428;53.194;6.132;2024-03-23T12:52:19;8.90;99.90
76567;DHT22;65428;53.194;6.132;2024-03-23T12:54:49;8.50;99.90
76567;DHT22;65428;53.194;6.132;2024-03-23T12:57:15;8.20;99.90
76567;DHT22;65428;53.194;6.132;2024-03-23T12:59:41;7.90;99.90
76567;DHT22;65428;53.194;6.132;2024-03-23T13:02:07;8.40;99.90
76567;DHT22;65428;53.194;6.132;2024-03-23T13:04:33;8.80;99.90
76567;DHT22;65428;53.194;6.132;2024-03-23T13:06:58;9.40;99.90
76567;DHT22;65428;53.194;6.132;2024-03-23T13:09:27;9.90;99.90
76567;DHT22;65428;53.194;6.132;2024-03-23T13:11:53;9.70;99.90
76567;DHT22;65428;53.194;6.132;2024-03-23T13:14:23;9.20;99.90
76567;DHT22;65428;53.194;6.132;2024-03-23T13:16:49;9.00;99.90
76567;DHT22;65428;53.194;6.132;2024-03-23T13:19:26;9.20;99.90
76567;DHT22;65428;53.194;6.132;2024-03-23T13:21:56;9.20;99.90
76567;DHT22;65428;53.194;6.132;2024-03-23T13:24:26;9.10;99.90
76567;DHT22;65428;53.194;6.132;2024-03-23T13:27:01;8.90;99.90
76567;DHT22;65428;53.194;6.132;2024-03-23T13:29:26;9.30;99.90
76567;DHT22;65428;53.194;6.132;2024-03-23T13:31:53;9.90;99.90
76567;DHT22;65428;53.194;6.132;2024-03-23T13:34:19;10.10;99.90
76567;DHT22;65428;53.194;6.132;2024-03-23T13:36:46;9.70;99.90
76567;DHT22;65428;53.194;6.132;2024-03-23T13:39:12;9.20;99.90
76567;DHT22;65428;53.194;6.132;2024-03-23T13:41:45;8.60;99.90
76567;DHT22;65428;53.194;6.132;2024-03-23T13:44:12;8.30;99.90
76567;DHT22;65428;53.194;6.132;2024-03-23T13:46:39;8.50;99.90
76567;DHT22;65428;53.194;6.132;2024-03-23T13:49:06;8.90;99.90
76567;DHT22;65428;53.194;6.132;2024-03-23T13:51:33;9.10;99.90
76567;DHT22;65428;53.194;6.132;2024-03-23T13:54:04;8.90;99.90
76567;DHT22;65428;53.194;6.132;2024-03-23T13:56:30;9.50;99.90
76567;DHT22;65428;53.194;6.132;2024-03-23T13:58:56;10.50;99.90
76567;DHT22;65428;53.194;6.132;2024-03-23T14:01:23;11.30;99.90
76567;DHT22;65428;53.194;6.132;2024-03-23T14:03:52;12.00;99.90
76567;DHT22;65428;53.194;6.132;2024-03-23T14:06:21;12.50;99.90
76567;DHT22;65428;53.194;6.132;2024-03-23T14:08:49;13.00;99.90
76567;DHT22;65428;53.194;6.132;2024-03-23T14:11:21;13.40;99.90
76567;DHT22;65428;53.194;6.132;2024-03-23T14:13:46;13.60;99.90
76567;DHT22;65428;53.194;6.132;2024-03-23T14:16:15;13.70;99.90
76567;DHT22;65428;53.194;6.132;2024-03-23T14:18:41;13.40;97.50
76567;DHT22;65428;53.194;6.132;2024-03-23T14:21:06;12.60;99.90
76567;DHT22;65428;53.194;6.132;2024-03-23T14:23:35;12.40;99.90
76567;DHT22;65428;53.194;6.132;2024-03-23T14:26:04;13.00;99.90
76567;DHT22;65428;53.194;6.132;2024-03-23T14:28:30;13.50;99.90
76567;DHT22;65428;53.194;6.132;2024-03-23T14:30:57;13.50;99.70
76567;DHT22;65428;53.194;6.132;2024-03-23T14:33:24;12.60;99.40
76567;DHT22;65428;53.194;6.132;2024-03-23T14:35:54;11.70;99.90
76567;DHT22;65428;53.194;6.132;2024-03-23T14:38:23;11.00;99.90
76567;DHT22;65428;53.194;6.132;2024-03-23T14:40:50;10.40;99.90
76567;DHT22;65428;53.194;6.132;2024-03-23T14:43:18;10.10;99.90
76567;DHT22;65428;53.194;6.132;2024-03-23T14:48:32;10.80;99.90
76567;DHT22;65428;53.194;6.132;2024-03-23T14:50:58;11.30;99.90
76567;DHT22;65428;53.194;6.132;2024-03-23T14:53:25;11.20;99.90
76567;DHT22;65428;53.194;6.132;2024-03-23T14:55:54;11.20;99.90
76567;DHT22;65428;53.194;6.132;2024-03-23T14:58:20;11.40;99.90
76567;DHT22;65428;53.194;6.132;2024-03-23T15:00:46;11.80;99.90
76567;DHT22;65428;53.194;6.132;2024-03-23T15:03:12;12.00;99.90
76567;DHT22;65428;53.194;6.132;2024-03-23T15:05:37;11.90;99.90
76567;DHT22;65428;53.194;6.132;2024-03-23T15:08:03;11.60;99.90
76567;DHT22;65428;53.194;6.132;2024-03-23T15:10:29;11.50;99.90
76567;DHT22;65428;53.194;6.132;2024-03-23T15:12:55;11.30;99.90
76567;DHT22;65428;53.194;6.132;2024-03-23T15:15:21;11.50;99.90
76567;DHT22;65428;53.194;6.132;2024-03-23T15:17:46;11.40;99.90
76567;DHT22;65428;53.194;6.132;2024-03-23T15:20:12;11.10;99.90
76567;DHT22;65428;53.194;6.132;2024-03-23T15:22:39;11.00;99.90
76567;DHT22;65428;53.194;6.132;2024-03-23T15:25:05;10.80;99.90
76567;DHT22;65428;53.194;6.132;2024-03-23T15:27:31;10.70;99.90
76567;DHT22;65428;53.194;6.132;2024-03-23T15:29:57;10.40;99.90
76567;DHT22;65428;53.194;6.132;2024-03-23T15:32:23;10.40;99.90
76567;DHT22;65428;53.194;6.132;2024-03-23T15:34:49;10.20;99.90
76567;DHT22;65428;53.194;6.132;2024-03-23T15:37:14;9.90;99.90
76567;DHT22;65428;53.194;6.132;2024-03-23T15:39:40;9.90;99.90
76567;DHT22;65428;53.194;6.132;2024-03-23T15:42:09;10.00;99.90
76567;DHT22;65428;53.194;6.132;2024-03-23T15:44:37;10.10;99.90
76567;DHT22;65428;53.194;6.132;2024-03-23T15:47:03;9.90;99.90
76567;DHT22;65428;53.194;6.132;2024-03-23T15:49:29;9.90;99.90
76567;DHT22;65428;53.194;6.132;2024-03-23T15:51:57;9.90;99.90
76567;DHT22;65428;53.194;6.132;2024-03-23T15:54:23;9.80;99.90
76567;DHT22;65428;53.194;6.132;2024-03-23T15:56:50;9.60;99.90
76567;DHT22;65428;53.194;6.132;2024-03-23T15:59:16;9.70;99.90
76567;DHT22;65428;53.194;6.132;2024-03-23T16:01:42;9.40;99.90
76567;DHT22;65428;53.194;6.132;2024-03-23T16:04:10;9.50;99.90
76567;DHT22;65428;53.194;6.132;2024-03-23T16:06:38;9.60;99.90
76567;DHT22;65428;53.194;6.132;2024-03-23T16:09:04;9.60;99.90
76567;DHT22;65428;53.194;6.132;2024-03-23T16:11:30;9.60;99.90
76567;DHT22;65428;53.194;6.132;2024-03-23T16:13:56;9.40;99.90
76567;DHT22;65428;53.194;6.132;2024-03-23T16:16:21;9.30;99.90
76567;DHT22;65428;53.194;6.132;2024-03-23T16:18:49;9.10;99.90
76567;DHT22;65428;53.194;6.132;2024-03-23T16:21:14;8.90;99.90
76567;DHT22;65428;53.194;6.132;2024-03-23T16:23:42;8.80;99.90
76567;DHT22;65428;53.194;6.132;2024-03-23T16:26:14;8.70;99.90
76567;DHT22;65428;53.194;6.132;2024-03-23T16:28:41;8.70;99.90
76567;DHT22;65428;53.194;6.132;2024-03-23T16:31:08;8.70;99.90
76567;DHT22;65428;53.194;6.132;2024-03-23T16:33:35;8.70;99.90
76567;DHT22;65428;53.194;6.132;2024-03-23T16:38:40;8.80;99.90
76567;DHT22;65428;53.194;6.132;2024-03-23T16:41:11;8.90;99.90
76567;DHT22;65428;53.194;6.132;2024-03-23T16:43:42;8.90;99.90
76567;DHT22;65428;53.194;6.132;2024-03-23T16:46:13;8.90;99.90
76567;DHT22;65428;53.194;6.132;2024-03-23T16:48:41;8.80;99.90
76567;DHT22;65428;53.194;6.132;2024-03-23T16:51:08;8.70;99.90
76567;DHT22;65428;53.194;6.132;2024-03-23T16:53:34;8.50;99.90
76567;DHT22;65428;53.194;6.132;2024-03-23T16:56:02;8.20;99.90